Time;durP1;ratioP1;P1;durP2;ratioP2;P2;SDS_P1;SDS_P2;PMS_P1;PMS_P2;Temp;Humidity;BMP_temperature;BMP_pressure;BME280_temperature;BME280_humidity;BME280_pressure;Samples;Min_cycle;Max_cycle;Signal;HPM_P1;HPM_P2
2022/02/23 00:01:05;;;;;;;0.77;0.60;;;;;;;7.76;100.00;99917.00;4991767;28;20041;-67
2022/02/23 00:03:31;;;;;;;1.00;0.60;;;;;;;7.74;100.00;99926.31;4991267;28;20054;-67
2022/02/23 00:05:56;;;;;;;0.75;0.60;;;;;;;7.65;100.00;99891.03;4991712;28;20614;-67
2022/02/23 00:08:22;;;;;;;0.73;0.52;;;;;;;7.42;100.00;99873.75;4991507;28;20030;-67
2022/02/23 00:10:47;;;;;;;0.85;0.68;;;;;;;7.57;100.00;99903.84;4991390;28;20416;-67
2022/02/23 00:13:13;;;;;;;0.80;0.60;;;;;;;7.47;100.00;99901.47;4991189;28;20424;-66
2022/02/23 00:15:38;;;;;;;0.68;0.50;;;;;;;7.44;100.00;99907.44;4991206;28;20030;-67
2022/02/23 00:18:04;;;;;;;0.80;0.70;;;;;;;7.45;100.00;99903.19;4991361;28;20484;-67
2022/02/23 00:20:29;;;;;;;0.65;0.63;;;;;;;7.45;100.00;99910.78;4991257;28;20519;-67
2022/02/23 00:22:54;;;;;;;0.60;0.60;;;;;;;7.65;100.00;99950.06;4991206;28;20042;-67
2022/02/23 00:25:21;;;;;;;1.15;0.63;;;;;;;7.43;100.00;99915.88;4991139;28;20128;-67
2022/02/23 00:27:46;;;;;;;0.70;0.60;;;;;;;7.44;100.00;99942.00;4990985;28;20037;-67
2022/02/23 00:30:12;;;;;;;0.55;0.45;;;;;;;7.60;100.00;99945.97;4991187;28;20035;-67
2022/02/23 00:32:38;;;;;;;0.50;0.50;;;;;;;7.55;100.00;99938.44;4991251;28;20037;-67
2022/02/23 00:35:03;;;;;;;1.13;0.70;;;;;;;7.30;100.00;99911.03;4991149;28;20029;-67
2022/02/23 00:37:29;;;;;;;0.60;0.60;;;;;;;7.45;100.00;99941.97;4991385;28;20030;-67
2022/02/23 00:39:54;;;;;;;1.13;0.70;;;;;;;7.31;100.00;99935.47;4990977;28;20034;-67
2022/02/23 00:42:20;;;;;;;0.60;0.50;;;;;;;7.53;100.00;99980.63;4991280;28;20026;-67
2022/02/23 00:44:45;;;;;;;0.70;0.60;;;;;;;7.33;100.00;99949.75;4989510;28;20416;-67
2022/02/23 00:47:11;;;;;;;0.88;0.73;;;;;;;7.53;100.00;99941.84;4989818;28;20481;-67
2022/02/23 00:49:37;;;;;;;0.82;0.73;;;;;;;7.63;100.00;99989.75;4991117;28;20057;-67
2022/02/23 00:52:05;;;;;;;0.90;0.80;;;;;;;7.50;100.00;99952.88;4991042;28;20065;-67
2022/02/23 00:54:31;;;;;;;0.75;0.70;;;;;;;7.48;100.00;99952.06;4991072;28;20033;-67
2022/02/23 00:56:56;;;;;;;1.25;0.90;;;;;;;7.56;100.00;99984.81;4990706;28;20026;-67
2022/02/23 00:59:22;;;;;;;2.15;0.70;;;;;;;7.32;100.00;99943.03;4990881;28;20037;-67
2022/02/23 01:01:57;;;;;;;1.33;0.90;;;;;;;7.26;100.00;99953.25;4986800;23;10000561;-64
2022/02/23 01:04:23;;;;;;;1.25;0.95;;;;;;;7.27;100.00;99959.13;5009908;28;20356;-62
2022/02/23 01:06:49;;;;;;;1.30;1.00;;;;;;;7.55;100.00;99990.72;5010261;28;20411;-64
2022/02/23 01:09:14;;;;;;;0.80;0.80;;;;;;;7.69;100.00;99999.75;5012261;28;20037;-61
2022/02/23 01:11:40;;;;;;;2.13;1.25;;;;;;;7.58;100.00;100013.44;5013128;28;20538;-61
2022/02/23 01:14:07;;;;;;;1.27;1.05;;;;;;;7.62;100.00;100013.38;5014195;28;20068;-62
2022/02/23 01:16:32;;;;;;;1.10;0.90;;;;;;;7.18;100.00;99939.88;5014174;28;20037;-61
2022/02/23 01:18:58;;;;;;;1.38;0.77;;;;;;;7.17;100.00;99944.97;5014116;28;20026;-62
2022/02/23 01:21:24;;;;;;;0.90;0.80;;;;;;;7.29;100.00;99965.81;5012103;28;20427;-62
2022/02/23 01:23:49;;;;;;;0.60;0.60;;;;;;;7.69;100.00;100002.28;5014461;28;20440;-61
2022/02/23 01:26:15;;;;;;;1.02;0.90;;;;;;;7.38;100.00;99958.09;5013400;28;20049;-61
2022/02/23 01:28:41;;;;;;;1.10;0.90;;;;;;;7.84;100.00;100024.00;5005991;28;20034;-61
2022/02/23 01:31:07;;;;;;;1.00;0.90;;;;;;;7.83;100.00;100005.44;4994403;28;20038;-61
2022/02/23 01:33:33;;;;;;;3.38;1.00;;;;;;;7.93;100.00;100025.50;4994397;28;20030;-61
2022/02/23 01:35:59;;;;;;;1.00;0.90;;;;;;;7.86;100.00;100015.50;4993673;28;20041;-61
2022/02/23 01:38:25;;;;;;;1.33;0.93;;;;;;;7.72;100.00;100024.19;4994113;28;20034;-62
2022/02/23 01:40:50;;;;;;;1.60;1.20;;;;;;;7.43;100.00;99971.50;4994368;28;20033;-61
2022/02/23 01:43:16;;;;;;;1.30;1.10;;;;;;;7.72;100.00;100012.38;4993853;28;20027;-61
2022/02/23 01:45:41;;;;;;;1.30;1.00;;;;;;;7.28;100.00;99951.53;4994225;28;20069;-63
2022/02/23 01:48:07;;;;;;;1.30;1.10;;;;;;;7.52;100.00;99985.72;4994148;28;20081;-61
2022/02/23 01:50:32;;;;;;;1.50;1.20;;;;;;;7.55;100.00;99993.25;4993520;28;20117;-61
2022/02/23 01:52:58;;;;;;;1.67;1.17;;;;;;;7.88;100.00;100056.78;4994031;28;20519;-64
2022/02/23 01:55:24;;;;;;;4.57;3.20;;;;;;;7.81;100.00;100057.75;4993975;28;20038;-62
2022/02/23 01:57:49;;;;;;;14.23;7.85;;;;;;;7.75;100.00;100022.44;4994098;28;20038;-63
2022/02/23 02:00:16;;;;;;;3.78;2.28;;;;;;;7.99;100.00;100058.31;4993854;28;20042;-62
2022/02/23 02:02:43;;;;;;;2.83;1.83;;;;;;;8.14;100.00;100070.75;4993774;28;20057;-61
2022/02/23 02:05:09;;;;;;;2.05;1.30;;;;;;;7.95;100.00;100009.44;4993331;28;20061;-62
2022/02/23 02:07:35;;;;;;;3.83;1.20;;;;;;;7.57;100.00;100020.19;4993414;28;20041;-63
2022/02/23 02:10:02;;;;;;;1.48;1.20;;;;;;;8.03;100.00;100075.97;5012210;28;20041;-61
2022/02/23 02:12:27;;;;;;;2.10;1.40;;;;;;;7.61;100.00;100010.84;5013302;28;20034;-61
2022/02/23 02:14:53;;;;;;;2.88;1.85;;;;;;;7.71;100.00;100014.91;5013252;28;20091;-61
2022/02/23 02:17:18;;;;;;;1.58;1.30;;;;;;;8.09;100.00;100063.22;5013125;28;20057;-61
2022/02/23 02:19:44;;;;;;;1.60;1.38;;;;;;;7.77;100.00;100066.25;5012276;28;20491;-61
2022/02/23 02:22:10;;;;;;;1.52;1.30;;;;;;;7.55;100.00;100009.25;5012464;28;20407;-61
2022/02/23 02:24:38;;;;;;;1.45;1.23;;;;;;;8.14;100.00;100066.50;5012629;28;20058;-61
2022/02/23 02:27:09;;;;;;;1.88;1.33;;;;;;;7.50;100.00;100016.09;5012874;28;20030;-61
2022/02/23 02:29:35;;;;;;;1.40;1.30;;;;;;;7.93;100.00;100093.84;5012838;28;20049;-61
2022/02/23 02:32:02;;;;;;;1.83;1.40;;;;;;;7.46;100.00;100039.75;5012524;28;20113;-65
2022/02/23 02:34:29;;;;;;;1.58;1.20;;;;;;;7.64;100.00;100057.19;5011091;28;20038;-62
2022/02/23 02:36:55;;;;;;;1.40;1.30;;;;;;;7.92;100.00;100095.56;5011458;28;20033;-62
2022/02/23 02:39:23;;;;;;;1.42;1.30;;;;;;;7.85;100.00;100112.53;5012639;28;20022;-62
2022/02/23 02:41:48;;;;;;;2.55;1.20;;;;;;;7.73;100.00;100096.69;5012447;28;20030;-61
2022/02/23 02:44:14;;;;;;;1.75;1.40;;;;;;;7.40;100.00;100052.50;5012515;28;20041;-64
2022/02/23 02:46:40;;;;;;;1.85;1.40;;;;;;;7.81;100.00;100107.53;5012369;28;20487;-64
2022/02/23 02:49:06;;;;;;;1.60;1.45;;;;;;;7.86;100.00;100110.84;5011124;28;20029;-61
2022/02/23 02:51:32;;;;;;;1.80;1.30;;;;;;;7.74;100.00;100099.19;5012088;28;20423;-62
2022/02/23 02:53:57;;;;;;;1.85;1.50;;;;;;;7.48;100.00;100059.97;5012501;28;20125;-64
2022/02/23 02:56:24;;;;;;;1.80;1.50;;;;;;;8.04;100.00;100124.91;5012518;28;20484;-61
2022/02/23 02:58:52;;;;;;;1.55;1.40;;;;;;;7.64;100.00;100069.00;5012144;28;20053;-61
2022/02/23 03:01:19;;;;;;;1.77;1.40;;;;;;;7.92;100.00;100137.75;5012182;28;20066;-61
2022/02/23 03:03:45;;;;;;;1.27;1.10;;;;;;;7.52;100.00;100059.06;5011756;28;20117;-61
2022/02/23 03:06:10;;;;;;;1.50;1.33;;;;;;;8.00;100.00;100149.44;5011920;28;20057;-61
2022/02/23 03:08:35;;;;;;;1.42;1.30;;;;;;;7.50;100.00;100068.38;5012161;28;20047;-61
2022/02/23 03:11:01;;;;;;;1.45;1.23;;;;;;;7.54;100.00;100095.28;5011982;28;20379;-61
2022/02/23 03:13:26;;;;;;;1.73;1.30;;;;;;;7.65;100.00;100111.97;5012077;28;20032;-61
2022/02/23 03:15:51;;;;;;;1.10;1.00;;;;;;;7.30;100.00;100050.94;5009355;28;20091;-63
2022/02/23 03:18:17;;;;;;;1.58;1.20;;;;;;;7.73;100.00;100142.22;4992107;28;20026;-61
2022/02/23 03:20:42;;;;;;;1.52;1.30;;;;;;;7.50;100.00;100093.66;4992328;28;20032;-61
2022/02/23 03:23:09;;;;;;;1.35;1.20;;;;;;;7.68;100.00;100138.94;4992155;28;20061;-61
2022/02/23 03:25:35;;;;;;;4.55;3.17;;;;;;;7.35;100.00;100101.47;4990807;28;20042;-63
2022/02/23 03:28:00;;;;;;;2.20;1.73;;;;;;;7.32;100.00;100087.16;4990785;28;20039;-61
2022/02/23 03:30:26;;;;;;;1.25;1.05;;;;;;;7.67;100.00;100150.75;4991895;28;20049;-61
2022/02/23 03:32:51;;;;;;;2.10;1.60;;;;;;;7.58;100.00;100155.09;4991450;28;20034;-61
2022/02/23 03:35:16;;;;;;;2.08;1.77;;;;;;;7.58;100.00;100150.03;4991933;28;20081;-62
2022/02/23 03:37:42;;;;;;;10.93;6.53;;;;;;;7.68;100.00;100149.06;4992097;28;20373;-61
2022/02/23 03:40:08;;;;;;;4.35;2.70;;;;;;;7.28;100.00;100103.22;4992077;28;20092;-61
2022/02/23 03:42:33;;;;;;;10.82;6.07;;;;;;;7.16;100.00;100092.41;4991584;28;20485;-62
2022/02/23 03:44:59;;;;;;;4.78;3.10;;;;;;;7.31;100.00;100093.06;4991746;28;20037;-61
2022/02/23 03:47:24;;;;;;;5.75;3.72;;;;;;;7.25;100.00;100102.44;4991379;28;20252;-61
2022/02/23 03:49:49;;;;;;;4.70;3.17;;;;;;;7.26;100.00;100097.34;4991423;28;20547;-61
2022/02/23 03:52:15;;;;;;;3.67;2.90;;;;;;;7.46;100.00;100099.59;4992054;28;20113;-61
2022/02/23 03:54:40;;;;;;;3.22;2.45;;;;;;;7.58;100.00;100157.63;4991517;28;20121;-62
2022/02/23 03:57:06;;;;;;;3.63;2.45;;;;;;;7.28;100.00;100105.75;4991453;28;20388;-64
2022/02/23 03:59:31;;;;;;;1.50;1.30;;;;;;;7.63;100.00;100153.31;4991594;28;20034;-61
2022/02/23 04:01:57;;;;;;;1.52;1.30;;;;;;;7.42;100.00;100115.69;4989753;28;20130;-61
2022/02/23 04:04:22;;;;;;;2.50;1.60;;;;;;;7.24;100.00;100094.00;4991076;28;20408;-61
2022/02/23 04:06:49;;;;;;;6.13;3.33;;;;;;;7.30;100.00;100113.31;4991505;28;20038;-61
2022/02/23 04:09:16;;;;;;;2.72;1.95;;;;;;;7.27;100.00;100124.28;4991383;28;20023;-61
2022/02/23 04:11:41;;;;;;;1.80;1.50;;;;;;;7.26;100.00;100117.56;4991149;28;20512;-61
2022/02/23 04:14:07;;;;;;;2.35;1.58;;;;;;;7.21;100.00;100121.03;5006533;28;20022;-64
2022/02/23 04:16:34;;;;;;;1.70;1.48;;;;;;;7.62;100.00;100204.78;4991037;28;20427;-63
2022/02/23 04:19:00;;;;;;;1.80;1.30;;;;;;;7.51;100.00;100191.41;4991194;28;20036;-61
2022/02/23 04:21:25;;;;;;;1.75;1.35;;;;;;;7.64;100.00;100187.91;5006409;28;20034;-61
2022/02/23 04:23:51;;;;;;;2.28;1.40;;;;;;;7.37;100.00;100135.16;4991241;28;20113;-63
2022/02/23 04:26:17;;;;;;;2.83;2.13;;;;;;;7.76;100.00;100192.81;4991096;28;20031;-62
2022/02/23 04:28:44;;;;;;;3.25;1.85;;;;;;;7.81;100.00;100193.56;4991068;28;20026;-61
2022/02/23 04:31:09;;;;;;;1.77;1.30;;;;;;;7.29;100.00;100142.81;5005979;28;20172;-63
2022/02/23 04:33:35;;;;;;;1.70;1.25;;;;;;;7.54;100.00;100199.00;4989860;28;20128;-61
2022/02/23 04:36:03;;;;;;;1.30;1.20;;;;;;;7.36;100.00;100151.16;4991288;28;20028;-63
2022/02/23 04:38:29;;;;;;;1.80;1.40;;;;;;;7.57;100.00;100204.00;4991184;28;20571;-64
2022/02/23 04:40:54;;;;;;;1.50;1.30;;;;;;;7.72;100.00;100198.75;4990760;28;20053;-63
2022/02/23 04:43:20;;;;;;;1.33;1.23;;;;;;;7.60;100.00;100209.88;4991358;28;20416;-61
2022/02/23 04:45:45;;;;;;;1.20;1.08;;;;;;;7.15;100.00;100141.31;4994892;28;20096;-63
2022/02/23 04:48:11;;;;;;;2.35;1.40;;;;;;;7.66;100.00;100186.19;4994918;28;20113;-61
2022/02/23 04:50:36;;;;;;;2.22;1.45;;;;;;;7.50;100.00;100208.31;4995348;28;20104;-60
2022/02/23 04:53:02;;;;;;;1.92;1.52;;;;;;;7.51;100.00;100224.31;4995058;28;20404;-61
2022/02/23 04:55:27;;;;;;;2.95;1.65;;;;;;;7.36;100.00;100158.75;4994803;28;20492;-61
2022/02/23 04:57:53;;;;;;;2.30;1.77;;;;;;;7.31;100.00;100153.72;4995386;28;20125;-61
2022/02/23 05:00:18;;;;;;;3.65;2.60;;;;;;;7.56;100.00;100212.47;5014089;28;20574;-62
2022/02/23 05:02:44;;;;;;;2.28;1.80;;;;;;;7.70;100.00;100215.66;5012863;28;20042;-61
2022/02/23 05:05:10;;;;;;;2.03;1.70;;;;;;;7.76;100.00;100220.66;5013207;28;20136;-62
2022/02/23 05:07:36;;;;;;;4.82;3.22;;;;;;;7.56;100.00;100166.94;5014358;28;20034;-61
2022/02/23 05:10:03;;;;;;;7.05;5.90;;;;;;;7.50;100.00;100179.66;4998718;28;20477;-61
2022/02/23 05:12:28;;;;;;;6.15;4.40;;;;;;;7.76;100.00;100231.56;4994341;28;20030;-62
2022/02/23 05:14:54;;;;;;;6.80;5.18;;;;;;;7.55;100.00;100182.94;4994439;28;20033;-62
2022/02/23 05:17:19;;;;;;;4.00;3.10;;;;;;;7.87;100.00;100250.00;4994310;28;20053;-62
2022/02/23 05:19:45;;;;;;;5.35;3.00;;;;;;;7.99;100.00;100238.03;4992869;28;20346;-61
2022/02/23 05:22:11;;;;;;;2.03;1.50;;;;;;;7.85;100.00;100256.78;4994182;28;20523;-62
2022/02/23 05:24:38;;;;;;;4.20;1.70;;;;;;;7.43;100.00;100210.91;4994301;28;20026;-62
2022/02/23 05:27:04;;;;;;;8.77;5.72;;;;;;;7.70;100.00;100221.56;4994225;28;20064;-62
2022/02/23 05:29:33;;;;;;;11.00;7.20;;;;;;;7.87;100.00;100256.75;4994188;28;20030;-62
2022/02/23 05:31:59;;;;;;;3.53;2.53;;;;;;;7.88;100.00;100274.44;4993789;28;20105;-62
2022/02/23 05:34:25;;;;;;;1.20;1.05;;;;;;;7.80;100.00;100275.41;4994313;28;20085;-62
2022/02/23 05:36:50;;;;;;;4.22;2.92;;;;;;;7.44;100.00;100226.09;4994192;28;20030;-62
2022/02/23 05:39:16;;;;;;;5.03;3.35;;;;;;;8.14;100.00;100281.72;4994716;28;20059;-64
2022/02/23 05:41:42;;;;;;;1.80;1.52;;;;;;;7.64;100.00;100231.75;5013650;28;20073;-63
2022/02/23 05:44:07;;;;;;;4.82;1.70;;;;;;;8.63;100.00;100286.97;5013441;28;20484;-62
2022/02/23 05:46:33;;;;;;;2.58;1.35;;;;;;;9.34;100.00;100281.53;5011642;28;20025;-62
2022/02/23 05:48:59;;;;;;;2.80;1.67;;;;;;;8.19;100.00;100243.66;5013492;28;20608;-62
2022/02/23 05:51:31;;;;;;;2.75;2.10;;;;;;;8.14;100.00;100289.31;5013379;28;20042;-62
2022/02/23 05:53:58;;;;;;;3.08;2.78;;;;;;;8.20;100.00;100289.22;5012027;28;20022;-62
2022/02/23 05:56:24;;;;;;;3.22;2.63;;;;;;;7.78;100.00;100297.38;5011982;28;20116;-62
2022/02/23 05:58:50;;;;;;;2.38;1.90;;;;;;;7.91;100.00;100281.19;5012600;28;20030;-63
2022/02/23 06:01:15;;;;;;;3.42;1.90;;;;;;;7.71;100.00;100238.41;5012688;28;20026;-62
2022/02/23 06:03:41;;;;;;;3.33;2.35;;;;;;;7.85;100.00;100302.34;5012693;28;20499;-64
2022/02/23 06:06:06;;;;;;;4.72;2.80;;;;;;;7.41;100.00;100222.72;5012919;28;20415;-63
2022/02/23 06:08:32;;;;;;;7.13;3.40;;;;;;;7.89;100.00;100293.84;5012439;28;20407;-63
2022/02/23 06:10:57;;;;;;;4.13;3.33;;;;;;;8.02;100.00;100312.28;5012051;28;20092;-63
2022/02/23 06:13:23;;;;;;;4.47;2.92;;;;;;;7.73;100.00;100273.81;5012061;28;20101;-63
2022/02/23 06:15:48;;;;;;;6.05;2.03;;;;;;;8.04;100.00;100318.16;5012321;28;20040;-63
2022/02/23 06:18:14;;;;;;;3.20;2.45;;;;;;;7.97;100.00;100319.06;5012247;28;20026;-63
2022/02/23 06:20:40;;;;;;;3.08;2.30;;;;;;;7.97;100.00;100316.53;5012752;28;20038;-64
2022/02/23 06:23:06;;;;;;;2.40;1.80;;;;;;;7.86;100.00;100308.25;5012337;28;20030;-63
2022/02/23 06:25:32;;;;;;;2.55;1.95;;;;;;;8.02;100.00;100329.16;5012668;28;20037;-63
2022/02/23 06:27:58;;;;;;;3.30;2.65;;;;;;;7.70;100.00;100281.44;5012853;28;20041;-63
2022/02/23 06:30:24;;;;;;;3.58;2.60;;;;;;;7.98;100.00;100328.34;5012526;28;20037;-63
2022/02/23 06:32:50;;;;;;;3.30;2.40;;;;;;;8.06;100.00;100344.25;5011438;28;20053;-63
2022/02/23 06:35:15;;;;;;;2.58;1.98;;;;;;;7.94;100.00;100343.59;5013002;28;20127;-63
2022/02/23 06:37:41;;;;;;;3.47;2.80;;;;;;;7.64;100.00;100282.34;5012514;28;20491;-63
2022/02/23 06:40:08;;;;;;;14.65;8.65;;;;;;;7.68;100.00;100301.72;5012617;28;20034;-63
2022/02/23 06:42:36;;;;;;;5.72;4.45;;;;;;;8.28;100.00;100365.16;5012322;28;20119;-63
2022/02/23 06:45:04;;;;;;;6.75;4.20;;;;;;;8.08;100.00;100360.28;5012473;28;20573;-63
2022/02/23 06:47:29;;;;;;;7.88;5.47;;;;;;;7.79;100.00;100319.28;5011139;28;20113;-63
2022/02/23 06:49:55;;;;;;;7.25;4.05;;;;;;;7.73;100.00;100284.75;5012302;28;20487;-63
2022/02/23 06:52:22;;;;;;;3.30;2.03;;;;;;;7.85;100.00;100336.94;5012311;28;20080;-63
2022/02/23 06:54:48;;;;;;;2.08;1.73;;;;;;;7.93;100.00;100355.41;5012133;28;20018;-63
2022/02/23 06:57:14;;;;;;;4.97;3.25;;;;;;;7.86;100.00;100344.50;5009675;28;20040;-63
2022/02/23 06:59:40;;;;;;;5.35;3.20;;;;;;;8.04;100.00;100378.91;5012374;28;20030;-63
2022/02/23 07:02:07;;;;;;;2.28;1.40;;;;;;;7.92;100.00;100333.50;5012233;28;20404;-63
2022/02/23 07:04:33;;;;;;;4.70;2.45;;;;;;;8.27;100.00;100386.25;5012281;28;20030;-63
2022/02/23 07:06:58;;;;;;;1.70;1.20;;;;;;;7.93;100.00;100319.13;5011866;28;20025;-63
2022/02/23 07:09:23;;;;;;;6.32;3.80;;;;;;;8.07;100.00;100329.91;5012122;28;20048;-63
2022/02/23 07:11:49;;;;;;;2.78;2.10;;;;;;;8.11;100.00;100383.03;5012185;28;20036;-63
2022/02/23 07:14:14;;;;;;;3.90;2.35;;;;;;;8.29;100.00;100390.47;5012274;28;20376;-63
2022/02/23 07:16:40;;;;;;;6.75;4.75;;;;;;;8.50;100.00;100390.19;5012542;28;20034;-63
2022/02/23 07:19:06;;;;;;;3.13;2.00;;;;;;;8.29;100.00;100389.59;5011922;28;20109;-63
2022/02/23 07:21:33;;;;;;;5.57;3.25;;;;;;;8.12;100.00;100335.78;5011987;28;20052;-63
2022/02/23 07:23:59;;;;;;;4.20;3.10;;;;;;;8.22;100.00;100348.28;5011719;28;20033;-63
2022/02/23 07:26:26;;;;;;;4.82;2.70;;;;;;;8.32;100.00;100362.53;5011369;28;20030;-63
2022/02/23 07:28:52;;;;;;;4.05;3.08;;;;;;;7.85;100.00;100307.41;5010405;28;20072;-64
2022/02/23 07:31:18;;;;;;;5.13;2.97;;;;;;;8.53;100.00;100404.50;5011803;28;20057;-64
2022/02/23 07:33:44;;;;;;;4.20;2.95;;;;;;;8.50;100.00;100380.03;5011909;28;20032;-64
2022/02/23 07:36:10;;;;;;;3.63;2.80;;;;;;;8.11;100.00;100350.13;5011774;28;20029;-64
2022/02/23 07:38:40;;;;;;;5.28;3.20;;;;;;;8.37;100.00;100355.75;5011596;28;20026;-64
2022/02/23 07:41:11;;;;;;;4.10;3.10;;;;;;;8.59;100.00;100395.13;5010081;28;20535;-64
2022/02/23 07:43:37;;;;;;;6.55;4.22;;;;;;;8.69;100.00;100413.59;4991997;28;20038;-64
2022/02/23 07:46:03;;;;;;;6.75;3.90;;;;;;;8.51;100.00;100427.34;4991539;28;20412;-64
2022/02/23 07:48:29;;;;;;;6.72;3.40;;;;;;;8.26;100.00;100357.56;4990391;28;20041;-64
2022/02/23 07:50:58;;;;;;;5.40;2.90;;;;;;;8.71;100.00;100422.81;4990391;28;20034;-64
2022/02/23 07:53:24;;;;;;;6.10;4.40;;;;;;;8.32;100.00;100379.47;4991207;28;20125;-64
2022/02/23 07:55:49;;;;;;;5.45;3.20;;;;;;;8.63;100.00;100444.94;4991657;28;20058;-64
2022/02/23 07:58:14;;;;;;;5.10;3.78;;;;;;;8.40;100.00;100388.63;4991678;28;20033;-63
2022/02/23 08:00:40;;;;;;;4.88;3.30;;;;;;;8.58;100.00;100423.84;4991468;28;20057;-64
2022/02/23 08:03:05;;;;;;;8.48;5.68;;;;;;;8.51;100.00;100394.41;4991408;28;20047;-64
2022/02/23 08:05:31;;;;;;;16.50;11.15;;;;;;;8.65;100.00;100434.75;4991367;28;20045;-64
2022/02/23 08:07:57;;;;;;;27.85;17.75;;;;;;;8.28;100.00;100391.28;4990999;28;20460;-64
2022/02/23 08:10:24;;;;;;;18.85;14.88;;;;;;;8.50;100.00;100438.31;4990161;28;20397;-64
2022/02/23 08:12:53;;;;;;;12.68;8.55;;;;;;;8.81;100.00;100438.78;4991534;28;20034;-62
2022/02/23 08:20:47;;;;;;;5.75;4.05;;;;;;;8.32;100.00;100392.13;4991266;28;20061;-64
2022/02/23 08:23:14;;;;;;;5.90;4.15;;;;;;;8.77;100.00;100451.50;4991170;28;20038;-64
2022/02/23 08:25:39;;;;;;;5.78;3.13;;;;;;;8.77;100.00;100456.56;4991130;28;20026;-63
2022/02/23 08:28:06;;;;;;;3.55;2.67;;;;;;;8.38;100.00;100408.06;4991416;28;20523;-64
2022/02/23 08:30:31;;;;;;;6.95;2.80;;;;;;;8.81;100.00;100455.66;4991167;28;20397;-64
2022/02/23 08:33:02;;;;;;;3.30;2.78;;;;;;;8.66;100.00;100442.34;4990762;28;20030;-64
2022/02/23 08:35:28;;;;;;;5.63;4.90;;;;;;;8.55;100.00;100403.63;4990028;28;20034;-64
2022/02/23 08:37:53;;;;;;;4.25;3.45;;;;;;;9.00;100.00;100452.88;4991216;28;20033;-64
2022/02/23 08:40:19;;;;;;;7.32;5.00;;;;;;;8.62;100.00;100410.28;4991484;28;20502;-64
2022/02/23 08:42:45;;;;;;;8.73;6.00;;;;;;;8.54;100.00;100416.31;4991320;28;20030;-64
2022/02/23 08:45:11;;;;;;;6.47;5.25;;;;;;;8.66;100.00;100422.06;4990926;28;20037;-64
2022/02/23 08:47:36;;;;;;;10.02;7.82;;;;;;;8.85;100.00;100470.00;4990882;28;20023;-64
2022/02/23 08:50:02;;;;;;;3.35;2.67;;;;;;;8.45;100.00;100417.28;4991318;28;20026;-64
2022/02/23 08:52:27;;;;;;;10.77;7.68;;;;;;;9.02;100.00;100473.97;4989548;28;20096;-64
2022/02/23 08:54:53;;;;;;;7.32;5.30;;;;;;;8.65;100.00;100402.66;4989840;28;20038;-63
2022/02/23 08:57:18;;;;;;;7.60;5.07;;;;;;;8.83;100.00;100475.09;4991183;28;20039;-64
2022/02/23 08:59:44;;;;;;;4.18;3.00;;;;;;;8.85;100.00;100485.19;4990941;28;20046;-64
2022/02/23 09:02:09;;;;;;;7.18;4.45;;;;;;;9.08;100.00;100485.72;5005572;28;20129;-64
2022/02/23 09:04:34;;;;;;;4.28;3.20;;;;;;;8.44;100.00;100415.59;4991133;28;20133;-64
2022/02/23 09:07:00;;;;;;;5.10;2.85;;;;;;;8.65;100.00;100444.91;4991021;28;20088;-64
2022/02/23 09:09:25;;;;;;;10.90;7.70;;;;;;;8.46;100.00;100424.00;4991116;28;20026;-64
2022/02/23 09:11:53;;;;;;;11.15;7.03;;;;;;;8.45;100.00;100440.06;4989749;28;20034;-63
2022/02/23 09:14:19;;;;;;;3.67;2.47;;;;;;;8.49;100.00;100446.78;4990648;28;20032;-63
2022/02/23 09:16:44;;;;;;;15.15;9.32;;;;;;;8.94;100.00;100493.50;4990804;28;20034;-62
2022/02/23 09:19:10;;;;;;;33.45;20.20;;;;;;;8.91;100.00;100480.03;4991196;28;20054;-62
2022/02/23 09:21:35;;;;;;;14.35;9.40;;;;;;;8.58;100.00;100449.19;4989538;28;20037;-63
2022/02/23 09:24:01;;;;;;;16.73;10.13;;;;;;;8.84;100.00;100497.03;4991028;28;20475;-62
2022/02/23 09:26:28;;;;;;;12.77;7.82;;;;;;;8.85;100.00;100502.94;4990810;28;20026;-62
2022/02/23 09:28:54;;;;;;;4.05;3.05;;;;;;;8.32;100.00;100419.97;4990798;28;20030;-64
2022/02/23 09:31:19;;;;;;;8.65;5.80;;;;;;;8.73;100.00;100436.31;4993974;28;20031;-62
2022/02/23 09:33:45;;;;;;;6.90;4.43;;;;;;;8.91;100.00;100482.59;4994733;28;20501;-62
2022/02/23 09:36:10;;;;;;;83.07;46.28;;;;;;;8.85;100.00;100465.75;4993169;28;20030;-61
2022/02/23 09:38:36;;;;;;;36.60;21.33;;;;;;;9.24;100.00;100494.78;4994316;28;20030;-64
2022/02/23 09:41:04;;;;;;;2.47;2.10;;;;;;;8.63;100.00;100442.38;4994410;28;20030;-62
2022/02/23 09:43:31;;;;;;;11.60;7.07;;;;;;;9.27;100.00;100504.91;4994132;28;20476;-62
2022/02/23 09:45:56;;;;;;;7.22;3.95;;;;;;;8.82;100.00;100442.13;4993852;28;20057;-62
2022/02/23 09:48:24;;;;;;;3.88;2.45;;;;;;;9.01;100.00;100458.78;4994205;28;20026;-62
2022/02/23 09:50:50;;;;;;;23.10;13.95;;;;;;;9.36;100.00;100465.03;4992869;28;21127;-61
2022/02/23 09:53:17;;;;;;;10.20;7.07;;;;;;;9.57;100.00;100481.59;4994110;28;20031;-62
2022/02/23 09:55:43;;;;;;;17.20;9.30;;;;;;;9.41;100.00;100470.00;4994058;28;20031;-62
2022/02/23 09:58:09;;;;;;;52.30;25.13;;;;;;;9.48;100.00;100452.16;5008888;28;20416;-62
2022/02/23 10:00:35;;;;;;;31.98;16.67;;;;;;;9.87;100.00;100478.56;4993760;28;20030;-62
2022/02/23 10:03:00;;;;;;;10.85;6.60;;;;;;;9.89;100.00;100497.16;4993863;28;20054;-61
2022/02/23 10:05:26;;;;;;;9.07;5.43;;;;;;;9.91;100.00;100495.41;4993949;28;20026;-62
2022/02/23 10:08:03;;;;;;;15.82;9.55;;;;;;;9.47;100.00;100427.63;4993915;28;20104;-62
2022/02/23 10:10:35;;;;;;;5.00;3.58;;;;;;;9.21;100.00;100347.72;4993779;28;20549;-62
2022/02/23 10:13:05;;;;;;;6.60;4.40;;;;;;;9.98;100.00;100486.81;4992275;28;20096;-65
2022/02/23 10:15:32;;;;;;;5.30;3.63;;;;;;;9.87;100.00;100460.78;4992331;28;20432;-62
2022/02/23 10:18:09;;;;;;;6.78;4.50;;;;;;;10.10;100.00;100488.38;4993682;28;20030;-61
2022/02/23 10:20:39;;;;;;;4.53;3.25;;;;;;;10.13;100.00;100490.84;4993644;28;20093;-62
2022/02/23 10:23:19;;;;;;;2.20;1.88;;;;;;;9.56;100.00;100424.09;4993735;28;20026;-62
2022/02/23 10:25:52;;;;;;;4.40;3.03;;;;;;;9.90;100.00;100420.13;4993541;28;20095;-62
2022/02/23 10:28:22;;;;;;;2.50;2.20;;;;;;;10.10;100.00;100488.38;4993866;28;20061;-62
2022/02/23 10:30:50;;;;;;;5.95;3.50;;;;;;;10.21;100.00;100474.59;4993486;28;20022;-62
2022/02/23 10:33:19;;;;;;;3.92;2.45;;;;;;;10.06;100.00;100430.81;4993347;28;20034;-63
2022/02/23 10:36:09;;;;;;;3.67;2.67;;;;;;;10.23;100.00;100472.88;4993503;28;20026;-62
2022/02/23 10:38:37;;;;;;;5.03;3.30;;;;;;;10.44;100.00;100482.59;4993868;28;20447;-62
2022/02/23 10:41:30;;;;;;;7.07;3.83;;;;;;;10.42;100.00;100420.81;4991251;28;20050;-62
2022/02/23 10:43:56;;;;;;;3.95;2.70;;;;;;;10.01;100.00;100407.19;4981557;28;20073;-62
2022/02/23 10:46:23;;;;;;;5.57;3.55;;;;;;;10.36;100.00;100453.97;4992931;28;20110;-62
2022/02/23 10:48:52;;;;;;;3.95;2.72;;;;;;;10.32;100.00;100408.31;4993127;28;20070;-62
2022/02/23 10:51:29;;;;;;;4.45;3.47;;;;;;;10.67;100.00;100454.19;4993216;28;20120;-62
2022/02/23 10:54:15;;;;;;;4.07;2.72;;;;;;;10.57;100.00;100462.03;4992799;28;20046;-62
2022/02/23 10:56:44;;;;;;;5.45;3.42;;;;;;;10.71;100.00;100440.56;4992335;28;20516;-62
2022/02/23 10:59:19;;;;;;;17.48;7.85;;;;;;;10.95;100.00;100434.91;4992456;28;20026;-62
2022/02/23 11:01:48;;;;;;;54.42;19.05;;;;;;;10.87;100.00;100458.88;4992607;28;20092;-62
2022/02/23 11:04:15;;;;;;;76.35;26.45;;;;;;;11.08;100.00;100450.75;4991247;28;20081;-62
2022/02/23 11:06:42;;;;;;;99.82;33.33;;;;;;;11.08;100.00;100413.44;4992703;28;20034;-62
2022/02/23 11:09:09;;;;;;;8.57;4.65;;;;;;;11.32;100.00;100453.59;4992566;28;20092;-63
2022/02/23 11:11:35;;;;;;;3.63;3.25;;;;;;;10.99;100.00;100397.53;4992367;28;20397;-62
2022/02/23 11:14:02;;;;;;;3.55;2.63;;;;;;;10.78;100.00;100429.38;4992663;28;20027;-62
2022/02/23 11:16:31;;;;;;;3.67;3.03;;;;;;;11.66;100.00;100434.97;4992417;28;20038;-62
2022/02/23 11:18:58;;;;;;;11.63;5.60;;;;;;;11.21;100.00;100373.28;4992309;28;20504;-62
2022/02/23 11:21:28;;;;;;;4.78;3.33;;;;;;;11.30;100.00;100447.69;4992207;28;20517;-62
2022/02/23 11:23:58;;;;;;;8.85;4.35;;;;;;;11.50;100.00;100352.16;4991845;28;20037;-63
2022/02/23 11:26:24;;;;;;;3.88;3.10;;;;;;;12.40;100.00;100423.59;4992573;28;20027;-62